createdAt,value
2019-06-15T00:00:28.295Z,58.10
2019-06-15T00:02:54.896Z,58.20
2019-06-15T00:05:21.529Z,58.40
2019-06-15T00:07:48.301Z,58.70
2019-06-15T00:10:15.112Z,58.80
2019-06-15T00:12:41.688Z,58.80
2019-06-15T00:15:09.107Z,59.00
2019-06-15T00:17:35.899Z,59.20
2019-06-15T00:20:03.575Z,59.50
2019-06-15T00:22:30.531Z,59.40
2019-06-15T00:24:57.526Z,59.60
2019-06-15T00:27:24.176Z,59.80
2019-06-15T00:29:50.869Z,59.90
2019-06-15T00:32:17.494Z,60.00
2019-06-15T00:34:44.118Z,60.10
2019-06-15T00:37:11.383Z,61.10
2019-06-15T00:39:39.608Z,60.30
2019-06-15T00:42:06.267Z,60.60
2019-06-15T00:44:35.162Z,60.70
2019-06-15T00:47:01.890Z,60.70
2019-06-15T00:49:28.633Z,60.90
2019-06-15T00:51:55.272Z,61.00
2019-06-15T00:54:21.905Z,61.10
2019-06-15T00:56:48.540Z,61.30
2019-06-15T00:59:15.205Z,61.50
2019-06-15T01:01:42.101Z,61.60
2019-06-15T01:04:08.710Z,61.80
2019-06-15T01:06:35.448Z,61.90
2019-06-15T01:09:02.090Z,62.10
2019-06-15T01:11:28.893Z,62.40
2019-06-15T01:13:55.648Z,62.50
2019-06-15T01:16:22.306Z,63.70
2019-06-15T01:18:49.029Z,63.00
2019-06-15T01:21:15.653Z,63.20
2019-06-15T01:23:42.282Z,63.20
2019-06-15T01:26:08.914Z,64.40
2019-06-15T01:28:36.297Z,63.60
2019-06-15T01:31:03.172Z,63.90
2019-06-15T01:33:29.996Z,64.00
2019-06-15T01:35:57.537Z,64.20
2019-06-15T01:38:24.176Z,64.00
2019-06-15T01:40:50.815Z,64.30
2019-06-15T01:43:17.428Z,64.30
2019-06-15T01:45:44.090Z,64.40
2019-06-15T01:48:10.769Z,64.70
2019-06-15T01:50:37.512Z,64.90
2019-06-15T01:53:04.383Z,65.60
2019-06-15T01:55:31.206Z,65.20
2019-06-15T01:57:58.268Z,65.30
2019-06-15T02:00:28.601Z,65.40
2019-06-15T02:02:55.229Z,65.50
2019-06-15T02:05:22.800Z,65.80
2019-06-15T02:07:50.300Z,66.00
2019-06-15T02:10:18.538Z,65.90
2019-06-15T02:12:45.316Z,66.00
2019-06-15T02:15:13.090Z,66.10
2019-06-15T02:17:39.768Z,66.10
2019-06-15T02:20:06.894Z,66.20
2019-06-15T02:22:33.472Z,66.50
2019-06-15T02:25:00.147Z,66.80
2019-06-15T02:27:26.903Z,67.20
2019-06-15T02:29:53.562Z,67.40
2019-06-15T02:32:20.264Z,67.60
2019-06-15T02:34:47.196Z,67.50
2019-06-15T02:37:14.093Z,67.50
2019-06-15T02:39:40.770Z,67.60
2019-06-15T02:42:07.736Z,68.10
2019-06-15T02:44:34.630Z,69.40
2019-06-15T02:47:01.287Z,69.50
2019-06-15T02:49:27.990Z,69.90
2019-06-15T02:51:54.963Z,70.00
2019-06-15T02:54:21.669Z,70.70
2019-06-15T02:56:48.335Z,70.70
2019-06-15T02:59:14.959Z,71.10
2019-06-15T03:01:41.548Z,71.00
2019-06-15T03:04:08.195Z,71.30
2019-06-15T03:06:37.910Z,71.50
2019-06-15T03:09:05.327Z,72.30
2019-06-15T03:11:32.057Z,71.90
2019-06-15T03:13:59.096Z,72.70
2019-06-15T03:16:25.693Z,73.30
2019-06-15T03:18:52.300Z,73.70
2019-06-15T03:21:19.137Z,73.80
2019-06-15T03:23:46.157Z,74.00
2019-06-15T03:26:13.020Z,74.20
2019-06-15T03:28:40.648Z,74.30
2019-06-15T03:31:07.611Z,74.70
2019-06-15T03:33:35.133Z,74.70
2019-06-15T03:36:01.927Z,75.00
2019-06-15T03:38:28.704Z,75.00
2019-06-15T03:40:55.446Z,75.00
2019-06-15T03:43:22.465Z,74.60
2019-06-15T03:45:49.098Z,74.20
2019-06-15T03:48:15.746Z,74.00
2019-06-15T03:50:42.369Z,73.80
2019-06-15T03:53:09.231Z,74.00
2019-06-15T03:55:35.888Z,73.90
2019-06-15T03:58:02.832Z,73.70
2019-06-15T04:00:35.511Z,73.70
2019-06-15T04:03:02.157Z,74.40
2019-06-15T04:05:30.210Z,73.60
2019-06-15T04:07:56.956Z,73.70
2019-06-15T04:10:23.609Z,73.80
2019-06-15T04:12:50.464Z,73.90
2019-06-15T04:15:17.384Z,74.00
2019-06-15T04:17:44.045Z,74.20
2019-06-15T04:20:11.222Z,74.10
2019-06-15T04:22:37.911Z,74.10
2019-06-15T04:25:04.858Z,74.20
2019-06-15T04:27:31.743Z,74.20
2019-06-15T04:29:58.660Z,74.30
2019-06-15T04:32:25.260Z,74.60
2019-06-15T04:34:51.885Z,74.70
2019-06-15T04:37:18.509Z,74.80
2019-06-15T04:39:45.233Z,74.90
2019-06-15T04:42:12.099Z,75.00
2019-06-15T04:44:38.824Z,74.90
2019-06-15T04:47:05.784Z,74.70
2019-06-15T04:49:32.427Z,75.00
2019-06-15T04:51:59.045Z,74.20
2019-06-15T04:54:25.972Z,74.00
2019-06-15T04:56:52.674Z,73.90
2019-06-15T04:59:19.304Z,73.30
2019-06-15T05:01:45.936Z,73.10
2019-06-15T05:04:12.693Z,72.80
2019-06-15T05:06:39.375Z,72.80
2019-06-15T05:09:06.308Z,72.70
2019-06-15T05:11:33.043Z,72.60
2019-06-15T05:13:59.631Z,72.50
2019-06-15T05:16:26.318Z,72.60
2019-06-15T05:18:52.925Z,72.30
2019-06-15T05:21:19.557Z,71.60
2019-06-15T05:23:46.188Z,70.90
2019-06-15T05:26:12.838Z,70.50
2019-06-15T05:28:39.440Z,70.30
2019-06-15T05:31:06.345Z,69.90
2019-06-15T05:33:32.968Z,69.70
2019-06-15T05:35:59.585Z,69.20
2019-06-15T05:38:26.221Z,69.50
2019-06-15T05:40:52.885Z,70.20
2019-06-15T05:43:19.790Z,70.80
2019-06-15T05:45:46.490Z,70.90
2019-06-15T05:48:13.101Z,70.70
2019-06-15T05:50:39.753Z,70.40
2019-06-15T05:53:06.802Z,70.10
2019-06-15T05:55:33.428Z,69.70
2019-06-15T05:58:00.168Z,69.30
2019-06-15T06:00:26.751Z,69.10
2019-06-15T06:02:53.364Z,68.60
2019-06-15T06:05:20.085Z,67.90
2019-06-15T06:07:46.686Z,67.30
2019-06-15T06:10:13.738Z,67.40
2019-06-15T06:12:40.425Z,67.00
2019-06-15T06:15:07.781Z,65.70
2019-06-15T06:17:34.404Z,65.80
2019-06-15T06:20:01.114Z,65.00
2019-06-15T06:22:27.711Z,64.60
2019-06-15T06:24:54.302Z,63.60
2019-06-15T06:27:33.357Z,63.40
2019-06-15T06:29:49.458Z,63.30
2019-06-15T06:32:16.049Z,63.00
2019-06-15T06:34:43.052Z,61.40
2019-06-15T06:37:10.048Z,61.00
2019-06-15T06:39:36.684Z,59.40
2019-06-15T06:42:03.368Z,58.10
2019-06-15T06:44:29.985Z,58.50
2019-06-15T06:46:56.715Z,58.10
2019-06-15T06:49:23.661Z,59.00
2019-06-15T06:51:50.592Z,58.50
2019-06-15T06:54:17.203Z,58.50
2019-06-15T06:56:43.787Z,58.00
2019-06-15T06:59:10.442Z,57.40
2019-06-15T07:01:37.159Z,58.30
2019-06-15T07:04:03.891Z,57.40
2019-06-15T07:06:30.541Z,56.50
2019-06-15T07:08:57.189Z,56.70
2019-06-15T07:11:23.801Z,58.00
2019-06-15T07:13:50.400Z,58.50
2019-06-15T07:16:17.112Z,57.10
2019-06-15T07:18:43.724Z,57.00
2019-06-15T07:21:10.379Z,57.80
2019-06-15T07:23:36.997Z,58.30
2019-06-15T07:26:03.698Z,58.30
2019-06-15T07:28:30.421Z,58.10
2019-06-15T07:30:57.035Z,58.50
2019-06-15T07:33:23.660Z,58.90
2019-06-15T07:35:50.389Z,58.50
2019-06-15T07:38:16.976Z,58.00
2019-06-15T07:40:43.599Z,58.40
2019-06-15T07:43:10.232Z,58.70
2019-06-15T07:45:36.849Z,58.60
2019-06-15T07:48:03.865Z,58.20
2019-06-15T07:50:30.545Z,57.40
2019-06-15T07:52:57.165Z,55.40
2019-06-15T07:55:23.787Z,52.90
2019-06-15T07:57:50.438Z,51.60
2019-06-15T08:00:17.835Z,52.50
2019-06-15T08:02:44.464Z,51.40
2019-06-15T08:05:11.520Z,49.30
2019-06-15T08:07:38.511Z,49.00
2019-06-15T08:10:06.530Z,49.10
2019-06-15T08:12:33.216Z,49.50
2019-06-15T08:14:59.805Z,49.50
2019-06-15T08:17:26.400Z,47.30
2019-06-15T08:19:53.005Z,47.20
2019-06-15T08:22:19.912Z,49.00
2019-06-15T08:24:46.528Z,50.90
2019-06-15T08:27:13.140Z,51.50
2019-06-15T08:29:39.865Z,50.70
2019-06-15T08:32:06.664Z,51.00
2019-06-15T08:34:33.301Z,49.50
2019-06-15T08:36:59.876Z,48.50
2019-06-15T08:39:26.566Z,47.20
2019-06-15T08:41:56.140Z,46.70
2019-06-15T08:44:21.741Z,46.80
2019-06-15T08:46:48.341Z,46.60
2019-06-15T08:49:15.127Z,46.40
2019-06-15T08:51:42.140Z,46.60
2019-06-15T08:54:09.398Z,46.90
2019-06-15T08:56:36.089Z,45.60
2019-06-15T08:59:02.775Z,45.60
2019-06-15T09:01:29.533Z,44.90
2019-06-15T09:03:56.320Z,44.30
2019-06-15T09:06:22.951Z,44.40
2019-06-15T09:08:49.567Z,44.40
2019-06-15T09:11:16.552Z,45.20
2019-06-15T09:13:43.226Z,45.80
2019-06-15T09:16:10.272Z,44.90
2019-06-15T09:18:37.029Z,45.70
2019-06-15T09:21:03.740Z,45.50
2019-06-15T09:23:30.676Z,44.90
2019-06-15T09:25:57.377Z,43.50
2019-06-15T09:28:24.551Z,44.60
2019-06-15T09:30:51.224Z,44.90
2019-06-15T09:33:17.875Z,45.20
2019-06-15T09:35:44.469Z,45.90
2019-06-15T09:38:11.109Z,44.40
2019-06-15T09:40:37.825Z,43.50
2019-06-15T09:43:04.717Z,43.40
2019-06-15T09:45:33.085Z,43.40
2019-06-15T09:48:00.287Z,43.00
2019-06-15T09:50:27.233Z,43.20
2019-06-15T09:52:53.960Z,41.80
2019-06-15T09:55:21.506Z,41.10
2019-06-15T09:57:48.119Z,40.90
2019-06-15T10:00:15.276Z,41.40
2019-06-15T10:02:42.208Z,42.20
2019-06-15T10:05:10.245Z,41.10
2019-06-15T10:07:37.180Z,41.10
2019-06-15T10:10:04.576Z,39.50
2019-06-15T10:12:31.296Z,39.50
2019-06-15T10:14:58.388Z,41.30
2019-06-15T10:17:25.601Z,39.70
2019-06-15T10:19:53.747Z,38.30
2019-06-15T10:22:20.524Z,38.40
2019-06-15T10:24:47.304Z,37.50
2019-06-15T10:27:13.925Z,38.30
2019-06-15T10:29:42.188Z,37.80
2019-06-15T10:32:09.052Z,36.60
2019-06-15T10:34:35.676Z,36.70
2019-06-15T10:37:02.562Z,36.50
2019-06-15T10:39:29.178Z,36.80
2019-06-15T10:41:56.414Z,36.80
2019-06-15T10:44:23.181Z,37.80
2019-06-15T10:46:56.298Z,38.70
2019-06-15T10:49:23.331Z,39.30
2019-06-15T10:51:50.125Z,39.60
2019-06-15T10:54:17.444Z,38.80
2019-06-15T10:56:45.291Z,38.90
2019-06-15T10:59:15.725Z,39.30
2019-06-15T11:01:42.366Z,40.30
2019-06-15T11:04:09.097Z,40.20
2019-06-15T11:06:35.763Z,41.20
2019-06-15T11:09:05.511Z,42.20
2019-06-15T11:11:32.110Z,43.10
2019-06-15T11:13:58.727Z,43.40
2019-06-15T11:16:25.483Z,42.80
2019-06-15T11:18:52.068Z,43.50
2019-06-15T11:21:18.660Z,43.20
2019-06-15T11:23:45.422Z,43.10
2019-06-15T11:26:12.204Z,43.60
2019-06-15T11:28:39.115Z,43.80
2019-06-15T11:31:05.781Z,43.40
2019-06-15T11:33:32.462Z,44.10
2019-06-15T11:35:59.413Z,44.60
2019-06-15T11:38:27.156Z,44.10
2019-06-15T11:40:54.281Z,43.60
2019-06-15T11:43:21.175Z,43.10
2019-06-15T11:45:48.608Z,41.30
2019-06-15T11:48:15.908Z,40.50
2019-06-15T11:50:43.369Z,40.20
2019-06-15T11:53:10.309Z,40.10
2019-06-15T11:55:39.777Z,38.80
2019-06-15T11:58:05.951Z,36.80
2019-06-15T12:00:36.538Z,36.90
2019-06-15T12:03:03.464Z,35.70
2019-06-15T12:05:30.172Z,35.00
2019-06-15T12:07:57.200Z,34.90
2019-06-15T12:10:23.862Z,35.00
2019-06-15T12:12:50.617Z,36.10
2019-06-15T12:15:17.789Z,36.30
2019-06-15T12:17:44.698Z,35.30
2019-06-15T12:20:11.712Z,35.50
2019-06-15T12:22:38.315Z,35.10
2019-06-15T12:25:05.703Z,35.30
2019-06-15T12:27:33.442Z,37.80
2019-06-15T12:30:00.143Z,37.20
2019-06-15T12:32:27.431Z,37.30
2019-06-15T12:34:54.052Z,36.00
2019-06-15T12:37:20.681Z,36.10
2019-06-15T12:39:47.275Z,35.70
2019-06-15T12:42:13.917Z,35.00
2019-06-15T12:44:41.172Z,35.50
2019-06-15T12:47:07.760Z,35.90
2019-06-15T12:49:34.833Z,35.60
2019-06-15T12:52:01.547Z,35.00
2019-06-15T12:54:28.831Z,35.60
2019-06-15T12:56:55.436Z,35.60
2019-06-15T12:59:22.570Z,35.90
2019-06-15T13:01:49.284Z,34.60
2019-06-15T13:04:15.897Z,33.60
2019-06-15T13:06:42.525Z,32.60
2019-06-15T13:09:09.137Z,31.50
2019-06-15T13:11:36.036Z,33.50
2019-06-15T13:14:03.627Z,35.20
2019-06-15T13:16:38.960Z,36.30
2019-06-15T13:18:59.623Z,36.80
2019-06-15T13:21:26.405Z,37.90
2019-06-15T13:23:52.992Z,38.20
2019-06-15T13:26:20.091Z,38.20
2019-06-15T13:28:46.708Z,37.90
2019-06-15T13:31:18.009Z,39.70
2019-06-15T13:33:41.828Z,38.20
2019-06-15T13:36:08.499Z,38.10
2019-06-15T13:38:35.145Z,38.50
2019-06-15T13:41:02.440Z,38.50
2019-06-15T13:43:29.177Z,37.80
2019-06-15T13:45:55.764Z,35.40
2019-06-15T13:48:22.584Z,33.90
2019-06-15T13:50:49.304Z,33.60
2019-06-15T13:53:16.025Z,33.70
2019-06-15T13:55:42.635Z,33.00
2019-06-15T13:58:09.318Z,33.10
2019-06-15T14:00:36.000Z,33.90
2019-06-15T14:03:03.132Z,33.50
2019-06-15T14:05:30.208Z,34.40
2019-06-15T14:07:57.409Z,34.60
2019-06-15T14:10:24.134Z,34.60
2019-06-15T14:12:51.185Z,34.70
2019-06-15T14:15:17.902Z,34.40
2019-06-15T14:17:44.509Z,33.40
2019-06-15T14:20:11.145Z,33.50
2019-06-15T14:22:38.108Z,33.40
2019-06-15T14:25:04.968Z,32.50
2019-06-15T14:27:32.193Z,32.20
2019-06-15T14:29:58.854Z,31.50
2019-06-15T14:32:25.847Z,31.90
2019-06-15T14:34:52.984Z,33.20
2019-06-15T14:37:20.435Z,33.40
2019-06-15T14:39:47.223Z,33.60
2019-06-15T14:42:13.868Z,34.10
2019-06-15T14:44:40.578Z,33.60
2019-06-15T14:47:07.344Z,33.90
2019-06-15T14:49:33.948Z,33.80
2019-06-15T14:52:00.573Z,33.80
2019-06-15T14:54:27.198Z,34.00
2019-06-15T14:56:56.484Z,34.70
2019-06-15T14:59:22.537Z,35.00
2019-06-15T15:01:57.234Z,35.10
2019-06-15T15:04:17.823Z,35.60
2019-06-15T15:06:47.031Z,35.40
2019-06-15T15:09:13.211Z,35.90
2019-06-15T15:11:39.881Z,35.60
2019-06-15T15:14:06.766Z,35.70
2019-06-15T15:16:33.500Z,35.00
2019-06-15T15:19:00.236Z,35.30
2019-06-15T15:21:26.920Z,36.10
2019-06-15T15:23:53.923Z,37.80
2019-06-15T15:26:20.534Z,40.10
2019-06-15T15:28:47.421Z,42.20
2019-06-15T15:31:16.923Z,43.10
2019-06-15T15:33:43.088Z,43.50
2019-06-15T15:36:10.041Z,44.90
2019-06-15T15:38:36.888Z,44.70
2019-06-15T15:41:03.532Z,51.80
2019-06-15T15:43:30.522Z,45.40
2019-06-15T15:45:57.177Z,44.60
2019-06-15T15:48:25.788Z,44.20
2019-06-15T15:50:52.303Z,43.90
2019-06-15T15:53:18.898Z,44.90
2019-06-15T15:55:46.756Z,45.50
2019-06-15T15:58:13.800Z,45.70
2019-06-15T16:00:40.652Z,45.40
2019-06-15T16:03:07.431Z,45.30
2019-06-15T16:05:36.843Z,45.30
2019-06-15T16:08:02.880Z,44.30
2019-06-15T16:10:29.551Z,44.20
2019-06-15T16:12:56.831Z,44.30
2019-06-15T16:15:23.607Z,44.70
2019-06-15T16:17:50.265Z,44.30
2019-06-15T16:20:17.425Z,43.20
2019-06-15T16:22:45.923Z,44.00
2019-06-15T16:25:12.852Z,44.60
2019-06-15T16:27:39.678Z,44.50
2019-06-15T16:30:06.593Z,45.00
2019-06-15T16:32:33.330Z,44.70
2019-06-15T16:34:59.934Z,45.10
2019-06-15T16:37:26.507Z,45.50
2019-06-15T16:39:53.152Z,46.80
2019-06-15T16:42:19.744Z,47.50
2019-06-15T16:44:46.920Z,47.40
2019-06-15T16:47:16.585Z,48.20
2019-06-15T16:49:42.534Z,48.80
2019-06-15T16:52:09.119Z,48.90
2019-06-15T16:54:36.125Z,49.50
2019-06-15T16:57:02.980Z,49.10
2019-06-15T16:59:29.579Z,49.30
2019-06-15T17:01:56.303Z,49.10
2019-06-15T17:04:22.893Z,48.70
2019-06-15T17:06:49.480Z,47.80
2019-06-15T17:09:16.917Z,47.60
2019-06-15T17:11:43.993Z,48.10
2019-06-15T17:14:10.585Z,48.60
2019-06-15T17:16:37.187Z,48.40
2019-06-15T17:19:06.866Z,48.00
2019-06-15T17:21:32.528Z,47.80
2019-06-15T17:23:59.223Z,47.90
2019-06-15T17:26:26.082Z,47.60
2019-06-15T17:28:53.176Z,47.30
2019-06-15T17:31:19.813Z,48.00
2019-06-15T17:33:46.961Z,47.70
2019-06-15T17:36:13.850Z,47.70
2019-06-15T17:38:40.487Z,47.30
2019-06-15T17:41:07.930Z,46.40
2019-06-15T17:43:36.507Z,46.50
2019-06-15T17:46:03.365Z,46.90
2019-06-15T17:48:30.059Z,47.10
2019-06-15T17:50:57.251Z,47.60
2019-06-15T17:53:26.236Z,48.50
2019-06-15T17:55:52.740Z,48.70
2019-06-15T17:58:19.557Z,49.20
2019-06-15T18:00:47.365Z,49.60
2019-06-15T18:03:16.932Z,49.90
2019-06-15T18:05:43.119Z,49.80
2019-06-15T18:08:10.224Z,50.20
2019-06-15T18:10:36.983Z,50.50
2019-06-15T18:13:03.796Z,50.60
2019-06-15T18:15:30.790Z,50.60
2019-06-15T18:17:57.480Z,50.80
2019-06-15T18:20:27.066Z,51.10
2019-06-15T18:22:56.403Z,51.00
2019-06-15T18:25:22.561Z,51.50
2019-06-15T18:27:49.148Z,51.30
2019-06-15T18:30:16.635Z,51.60
2019-06-15T18:32:43.407Z,51.40
2019-06-15T18:35:10.165Z,51.60
2019-06-15T18:37:37.276Z,52.00
2019-06-15T18:40:06.571Z,52.00
2019-06-15T18:42:32.997Z,51.90
2019-06-15T18:44:59.583Z,52.00
2019-06-15T18:47:26.691Z,52.30
2019-06-15T18:49:56.083Z,52.70
2019-06-15T18:52:22.569Z,53.00
2019-06-15T18:54:49.302Z,53.00
2019-06-15T18:57:17.547Z,53.70
2019-06-15T18:59:47.233Z,54.40
2019-06-15T19:02:13.282Z,53.90
2019-06-15T19:04:39.979Z,54.50
2019-06-15T19:07:06.742Z,54.40
2019-06-15T19:09:33.488Z,54.30
2019-06-15T19:12:00.218Z,54.10
2019-06-15T19:14:27.371Z,53.50
2019-06-15T19:16:56.515Z,53.70
2019-06-15T19:19:22.567Z,53.80
2019-06-15T19:21:49.239Z,53.80
2019-06-15T19:24:16.781Z,53.70
2019-06-15T19:26:45.916Z,54.10
2019-06-15T19:29:12.172Z,54.00
2019-06-15T19:31:38.850Z,54.30
2019-06-15T19:34:06.734Z,54.50
2019-06-15T19:36:33.637Z,54.80
2019-06-15T19:39:00.229Z,55.10
2019-06-15T19:41:27.044Z,55.20
2019-06-15T19:43:53.696Z,55.10
2019-06-15T19:46:20.279Z,55.30
2019-06-15T19:48:46.908Z,55.60
2019-06-15T19:51:13.572Z,55.60
2019-06-15T19:53:40.237Z,55.80
2019-06-15T19:56:07.107Z,56.40
2019-06-15T19:58:33.913Z,56.40
2019-06-15T20:01:00.521Z,56.90
2019-06-15T20:03:27.707Z,56.60
2019-06-15T20:05:56.686Z,56.70
2019-06-15T20:08:22.961Z,57.00
2019-06-15T20:10:49.588Z,57.40
2019-06-15T20:13:16.301Z,57.40
2019-06-15T20:15:42.966Z,57.60
2019-06-15T20:18:09.552Z,58.50
2019-06-15T20:20:37.033Z,57.80
2019-06-15T20:23:03.887Z,58.20
2019-06-15T20:25:30.513Z,58.30
2019-06-15T20:27:57.132Z,58.50
2019-06-15T20:30:23.695Z,58.60
2019-06-15T20:32:50.283Z,58.90
2019-06-15T20:35:21.109Z,58.70
2019-06-15T20:37:46.492Z,59.10
2019-06-15T20:40:16.372Z,59.30
2019-06-15T20:42:42.640Z,59.50
2019-06-15T20:45:10.284Z,59.20
2019-06-15T20:47:37.216Z,59.50
2019-06-15T20:50:06.641Z,59.70
2019-06-15T20:52:33.303Z,59.90
2019-06-15T20:54:59.900Z,60.10
2019-06-15T20:57:26.535Z,60.00
2019-06-15T20:59:53.175Z,60.20
2019-06-15T21:02:19.824Z,60.50
2019-06-15T21:04:46.772Z,61.00
2019-06-15T21:07:16.043Z,61.40
2019-06-15T21:09:42.225Z,61.00
2019-06-15T21:12:08.842Z,61.10
2019-06-15T21:14:36.541Z,61.40
2019-06-15T21:17:03.512Z,61.30
2019-06-15T21:19:30.388Z,61.90
2019-06-15T21:21:56.977Z,62.10
2019-06-15T21:24:26.238Z,62.30
2019-06-15T21:26:52.432Z,63.50
2019-06-15T21:29:19.016Z,62.80
2019-06-15T21:31:46.484Z,62.70
2019-06-15T21:34:13.439Z,62.70
2019-06-15T21:36:40.015Z,62.90
2019-06-15T21:39:07.057Z,63.00
2019-06-15T21:41:33.809Z,63.00
2019-06-15T21:44:00.420Z,62.30
2019-06-15T21:46:27.007Z,61.90
2019-06-15T21:48:53.615Z,61.90
2019-06-15T21:51:20.253Z,62.00
2019-06-15T21:53:47.094Z,62.50
2019-06-15T21:56:16.003Z,61.90
2019-06-15T21:58:42.351Z,62.50
2019-06-15T22:01:28.984Z,61.90
2019-06-15T22:03:55.995Z,63.40
2019-06-15T22:06:22.625Z,63.10
2019-06-15T22:08:49.517Z,63.20
2019-06-15T22:11:16.142Z,63.40
2019-06-15T22:13:42.845Z,63.70
2019-06-15T22:16:09.481Z,63.60
2019-06-15T22:18:36.531Z,63.50
2019-06-15T22:21:03.531Z,63.60
2019-06-15T22:23:30.128Z,64.00
2019-06-15T22:25:57.157Z,63.60
2019-06-15T22:28:23.865Z,62.10
2019-06-15T22:30:50.468Z,63.60
2019-06-15T22:33:17.306Z,62.60
2019-06-15T22:35:44.088Z,62.20
2019-06-15T22:38:11.009Z,62.10
2019-06-15T22:40:37.683Z,61.90
2019-06-15T22:43:04.303Z,62.00
2019-06-15T22:45:31.211Z,62.70
2019-06-15T22:47:57.792Z,62.20
2019-06-15T22:50:24.708Z,61.80
2019-06-15T22:52:51.627Z,61.80
2019-06-15T22:55:18.344Z,60.60
2019-06-15T22:57:46.100Z,61.50
2019-06-15T23:00:13.788Z,61.70
2019-06-15T23:02:40.616Z,61.60
2019-06-15T23:05:07.641Z,62.70
2019-06-15T23:07:36.417Z,63.20
2019-06-15T23:10:06.780Z,63.30
2019-06-15T23:12:32.587Z,62.80
2019-06-15T23:14:59.195Z,63.20
2019-06-15T23:17:25.812Z,63.70
2019-06-15T23:19:52.421Z,63.30
2019-06-15T23:22:19.024Z,63.10
2019-06-15T23:24:46.822Z,62.90
2019-06-15T23:27:13.653Z,62.70
2019-06-15T23:29:40.244Z,62.20
2019-06-15T23:32:06.870Z,62.60
2019-06-15T23:34:33.550Z,62.80
2019-06-15T23:37:02.092Z,62.40
2019-06-15T23:39:28.793Z,63.20
2019-06-15T23:41:56.338Z,63.20
2019-06-15T23:44:23.345Z,64.10
2019-06-15T23:46:49.952Z,64.00
2019-06-15T23:49:16.595Z,63.70
2019-06-15T23:51:43.300Z,64.20
2019-06-15T23:54:09.999Z,64.50
2019-06-15T23:56:36.972Z,65.10
2019-06-15T23:59:03.916Z,64.80
